createdAt,value
2017-08-22T00:00:15.159Z,62.6
2017-08-22T00:01:17.764Z,62.6
2017-08-22T00:02:20.305Z,62.4
2017-08-22T00:03:23.333Z,62.5
2017-08-22T00:04:25.840Z,62.6
2017-08-22T00:05:28.346Z,62.3
2017-08-22T00:06:31.557Z,62.7
2017-08-22T00:07:34.052Z,62.5
2017-08-22T00:08:37.583Z,62.7
2017-08-22T00:09:41.107Z,62.6
2017-08-22T00:10:43.892Z,62.9
2017-08-22T00:11:46.393Z,62.8
2017-08-22T00:12:48.961Z,62.8
2017-08-22T00:13:51.802Z,62.9
2017-08-22T00:14:54.327Z,62.9
2017-08-22T00:15:56.810Z,62.9
2017-08-22T00:17:00.034Z,62.6
2017-08-22T00:18:02.659Z,62.9
2017-08-22T00:19:05.507Z,62.9
2017-08-22T00:20:08.029Z,62.9
2017-08-22T00:21:10.544Z,63
2017-08-22T00:22:13.408Z,63.1
2017-08-22T00:23:16.600Z,63.2
2017-08-22T00:24:19.091Z,63.1
2017-08-22T00:25:21.613Z,63
2017-08-22T00:26:24.493Z,63.1
2017-08-22T00:27:27.084Z,63
2017-08-22T00:28:29.598Z,63.1
2017-08-22T00:29:32.792Z,63.1
2017-08-22T00:30:35.654Z,63
2017-08-22T00:31:38.583Z,63.1
2017-08-22T00:32:41.090Z,63
2017-08-22T00:33:43.947Z,62.9
2017-08-22T00:34:46.458Z,63
2017-08-22T00:35:49.160Z,63
2017-08-22T00:36:51.998Z,62.9
2017-08-22T00:37:54.848Z,62.9
2017-08-22T00:38:57.377Z,63.1
2017-08-22T00:39:59.893Z,63
2017-08-22T00:41:02.639Z,63
2017-08-22T00:42:05.497Z,63
2017-08-22T00:43:08.022Z,63.1
2017-08-22T00:44:10.875Z,63.1
2017-08-22T00:45:14.057Z,63.1
2017-08-22T00:46:17.589Z,63.1
2017-08-22T00:47:20.480Z,63
2017-08-22T00:48:23.346Z,63
2017-08-22T00:49:26.548Z,63.1
2017-08-22T00:50:29.707Z,63
2017-08-22T00:51:32.228Z,63.1
2017-08-22T00:52:35.100Z,63.2
2017-08-22T00:53:37.606Z,63.2
2017-08-22T00:54:40.120Z,63.1
2017-08-22T00:55:42.634Z,63
2017-08-22T00:56:45.169Z,62.9
2017-08-22T00:57:47.720Z,63
2017-08-22T00:58:50.220Z,62.9
2017-08-22T00:59:52.749Z,63
2017-08-22T01:00:55.586Z,62.9
2017-08-22T01:01:58.632Z,62.9
2017-08-22T01:03:01.140Z,63
2017-08-22T01:04:03.647Z,62.9
2017-08-22T01:05:06.514Z,63
2017-08-22T01:06:09.022Z,62.9
2017-08-22T01:07:11.524Z,62.9
2017-08-22T01:08:14.036Z,62.9
2017-08-22T01:09:16.898Z,62.9
2017-08-22T01:10:19.879Z,62.9
2017-08-22T01:11:22.791Z,63
2017-08-22T01:12:25.293Z,62.9
2017-08-22T01:13:28.437Z,62.9
2017-08-22T01:14:30.965Z,62.9
2017-08-22T01:15:34.167Z,62.9
2017-08-22T01:16:37.017Z,62.9
2017-08-22T01:17:39.526Z,62.9
2017-08-22T01:18:42.043Z,63
2017-08-22T01:19:44.893Z,62.9
2017-08-22T01:20:47.741Z,62.9
2017-08-22T01:21:50.914Z,62.9
2017-08-22T01:22:53.446Z,62.9
2017-08-22T01:23:55.961Z,63
2017-08-22T01:24:59.247Z,63.1
2017-08-22T01:26:02.432Z,63.1
2017-08-22T01:27:04.970Z,62.9
2017-08-22T01:28:07.489Z,62.9
2017-08-22T01:29:10.000Z,62.9
2017-08-22T01:30:12.517Z,63
2017-08-22T01:31:15.380Z,63
2017-08-22T01:32:18.242Z,62.9
2017-08-22T01:33:21.099Z,63
2017-08-22T01:34:23.603Z,63
2017-08-22T01:35:26.105Z,63.1
2017-08-22T01:36:28.629Z,63.2
2017-08-22T01:37:31.121Z,63.2
2017-08-22T01:38:33.657Z,63.3
2017-08-22T01:39:36.159Z,63.2
2017-08-22T01:40:39.020Z,63.2
2017-08-22T01:41:42.225Z,63.2
2017-08-22T01:42:44.717Z,63.2
2017-08-22T01:43:47.227Z,63.3
2017-08-22T01:44:50.091Z,63.2
2017-08-22T01:45:53.281Z,63.3
2017-08-22T01:46:56.122Z,63.3
2017-08-22T01:47:59.304Z,63.4
2017-08-22T01:49:02.188Z,63.5
2017-08-22T01:50:05.385Z,63.5
2017-08-22T01:51:08.648Z,63.4
2017-08-22T01:52:11.158Z,63.3
2017-08-22T01:53:13.672Z,63.3
2017-08-22T01:54:16.539Z,63.4
2017-08-22T01:55:19.053Z,63.4
2017-08-22T01:56:21.552Z,63.3
2017-08-22T01:57:24.744Z,63.3
2017-08-22T01:58:27.920Z,63.4
2017-08-22T01:59:30.759Z,63.4
2017-08-22T02:00:34.288Z,63.4
2017-08-22T02:01:37.466Z,63.4
2017-08-22T02:02:39.995Z,63.4
2017-08-22T02:03:42.499Z,63.5
2017-08-22T02:04:45.333Z,63.5
2017-08-22T02:05:47.846Z,63.5
2017-08-22T02:06:50.686Z,63.4
2017-08-22T02:07:53.219Z,63.4
2017-08-22T02:08:55.720Z,63.5
2017-08-22T02:09:58.570Z,63.4
2017-08-22T02:11:01.084Z,63.4
2017-08-22T02:12:03.944Z,63.4
2017-08-22T02:13:06.479Z,63.4
2017-08-22T02:14:08.996Z,63.3
2017-08-22T02:15:12.189Z,63.3
2017-08-22T02:16:15.716Z,63.4
2017-08-22T02:17:18.909Z,63.3
2017-08-22T02:18:21.774Z,63.4
2017-08-22T02:19:25.295Z,63.4
2017-08-22T02:20:27.788Z,63.5
2017-08-22T02:21:30.632Z,63.5
2017-08-22T02:22:33.128Z,63.5
2017-08-22T02:23:35.648Z,63.5
2017-08-22T02:24:38.515Z,63.5
2017-08-22T02:25:41.032Z,63.5
2017-08-22T02:26:44.560Z,63.5
2017-08-22T02:27:47.089Z,63.5
2017-08-22T02:28:49.600Z,63.5
2017-08-22T02:29:52.444Z,63.5
2017-08-22T02:30:54.960Z,63.6
2017-08-22T02:31:57.473Z,63.6
2017-08-22T02:33:00.696Z,63.5
2017-08-22T02:34:04.238Z,63.5
2017-08-22T02:35:07.449Z,63.5
2017-08-22T02:36:10.634Z,63.6
2017-08-22T02:37:13.155Z,63.6
2017-08-22T02:38:16.000Z,63.6
2017-08-22T02:39:18.517Z,63.6
2017-08-22T02:40:21.023Z,63.7
2017-08-22T02:41:23.885Z,63.7
2017-08-22T02:42:26.408Z,63.7
2017-08-22T02:43:29.621Z,63.6
2017-08-22T02:44:32.815Z,63.7
2017-08-22T02:45:35.335Z,63.6
2017-08-22T02:46:38.189Z,63.6
2017-08-22T02:47:40.700Z,63.6
2017-08-22T02:48:43.216Z,63.6
2017-08-22T02:49:46.078Z,63.5
2017-08-22T02:50:48.949Z,63.6
2017-08-22T02:51:52.485Z,63.6
2017-08-22T02:52:55.009Z,63.6
2017-08-22T02:53:58.185Z,63.6
2017-08-22T02:55:01.052Z,63.5
2017-08-22T02:56:04.242Z,63.5
2017-08-22T02:57:06.756Z,63.5
2017-08-22T02:58:09.609Z,63.5
2017-08-22T02:59:12.811Z,63.4
2017-08-22T03:00:15.318Z,63.4
2017-08-22T03:01:18.181Z,63.5
2017-08-22T03:02:21.362Z,63.5
2017-08-22T03:03:24.208Z,63.5
2017-08-22T03:04:26.738Z,63.5
2017-08-22T03:05:29.587Z,63.5
2017-08-22T03:06:32.092Z,63.5
2017-08-22T03:07:34.603Z,63.5
2017-08-22T03:08:37.097Z,63.6
2017-08-22T03:09:40.301Z,63.6
2017-08-22T03:10:43.482Z,63.7
2017-08-22T03:11:46.008Z,63.7
2017-08-22T03:12:48.857Z,63.5
2017-08-22T03:13:51.355Z,63.5
2017-08-22T03:14:53.856Z,63.5
2017-08-22T03:15:56.706Z,63.5
2017-08-22T03:16:59.573Z,63.5
2017-08-22T03:18:02.099Z,63.6
2017-08-22T03:19:04.934Z,63.6
2017-08-22T03:20:07.455Z,63.6
2017-08-22T03:21:09.969Z,63.6
2017-08-22T03:22:12.470Z,63.7
2017-08-22T03:23:14.984Z,63.7
2017-08-22T03:24:17.509Z,63.6
2017-08-22T03:25:20.374Z,63.8
2017-08-22T03:26:23.218Z,63.7
2017-08-22T03:27:25.734Z,63.7
2017-08-22T03:28:28.918Z,63.7
2017-08-22T03:29:32.474Z,63.8
2017-08-22T03:30:35.663Z,63.8
2017-08-22T03:31:39.226Z,63.9
2017-08-22T03:32:41.738Z,63.9
2017-08-22T03:33:44.940Z,63.8
2017-08-22T03:34:47.787Z,63.8
2017-08-22T03:35:50.605Z,63.8
2017-08-22T03:36:53.471Z,63.8
2017-08-22T03:37:55.963Z,63.7
2017-08-22T03:38:58.791Z,63.8
2017-08-22T03:40:01.311Z,63.8
2017-08-22T03:41:04.842Z,63.8
2017-08-22T03:42:08.015Z,63.9
2017-08-22T03:43:10.876Z,63.9
2017-08-22T03:44:14.045Z,63.9
2017-08-22T03:45:17.223Z,64
2017-08-22T03:46:20.088Z,63.9
2017-08-22T03:47:23.264Z,64
2017-08-22T03:48:26.127Z,64
2017-08-22T03:49:28.656Z,64
2017-08-22T03:50:31.154Z,64
2017-08-22T03:51:34.006Z,64
2017-08-22T03:52:36.858Z,64
2017-08-22T03:53:40.025Z,64.1
2017-08-22T03:54:42.888Z,64.1
2017-08-22T03:55:45.723Z,64
2017-08-22T03:56:48.216Z,64
2017-08-22T03:57:50.725Z,64.1
2017-08-22T03:58:53.232Z,64.1
2017-08-22T03:59:56.076Z,64.1
2017-08-22T04:00:59.269Z,64.1
2017-08-22T04:02:02.139Z,64.1
2017-08-22T04:03:05.661Z,64
2017-08-22T04:04:08.855Z,64.1
2017-08-22T04:05:12.381Z,64.2
2017-08-22T04:06:14.885Z,64.3
2017-08-22T04:07:17.744Z,64.3
2017-08-22T04:08:20.248Z,64.3
2017-08-22T04:09:23.096Z,64.3
2017-08-22T04:10:25.961Z,64.3
2017-08-22T04:11:28.454Z,64.4
2017-08-22T04:12:31.314Z,64.4
2017-08-22T04:13:34.506Z,64.4
2017-08-22T04:14:37.360Z,64.4
2017-08-22T04:15:40.560Z,64.4
2017-08-22T04:16:43.039Z,64.4
2017-08-22T04:17:45.556Z,64.4
2017-08-22T04:18:48.446Z,64.3
2017-08-22T04:19:51.288Z,64.3
2017-08-22T04:20:54.146Z,64.3
2017-08-22T04:21:56.647Z,64.2
2017-08-22T04:22:59.491Z,64.2
2017-08-22T04:24:02.015Z,64.2
2017-08-22T04:25:04.848Z,64.2
2017-08-22T04:26:07.679Z,64.2
2017-08-22T04:27:10.189Z,64.2
2017-08-22T04:28:12.735Z,64.2
2017-08-22T04:29:15.258Z,64.2
2017-08-22T04:30:18.089Z,64.3
2017-08-22T04:31:20.939Z,64.4
2017-08-22T04:32:24.146Z,64.4
2017-08-22T04:33:27.355Z,64.3
2017-08-22T04:34:30.548Z,64.3
2017-08-22T04:35:33.403Z,64.3
2017-08-22T04:36:36.228Z,64.4
2017-08-22T04:37:38.747Z,64.3
2017-08-22T04:38:41.251Z,64.4
2017-08-22T04:39:43.776Z,64.3
2017-08-22T04:40:46.269Z,64.5
2017-08-22T04:41:48.772Z,64.5
2017-08-22T04:42:51.278Z,64.5
2017-08-22T04:43:54.146Z,64.5
2017-08-22T04:44:57.001Z,64.4
2017-08-22T04:45:59.514Z,64.5
2017-08-22T04:47:03.067Z,64.5
2017-08-22T04:48:05.922Z,64.5
2017-08-22T04:49:08.753Z,64.5
2017-08-22T04:50:11.272Z,64.5
2017-08-22T04:51:15.112Z,64.5
2017-08-22T04:52:17.991Z,64.5
2017-08-22T04:53:20.490Z,64.6
2017-08-22T04:54:22.993Z,64.6
2017-08-22T04:55:25.502Z,64.6
2017-08-22T04:56:28.042Z,64.6
2017-08-22T04:57:30.899Z,64.6
2017-08-22T04:58:33.747Z,64.6
2017-08-22T04:59:36.596Z,64.6
2017-08-22T05:00:39.092Z,64.5
2017-08-22T05:01:42.278Z,64.5
2017-08-22T05:02:45.446Z,64.5
2017-08-22T05:03:48.299Z,64.5
2017-08-22T05:04:50.818Z,64.4
2017-08-22T05:05:53.668Z,64.4
2017-08-22T05:06:56.506Z,64.4
2017-08-22T05:07:59.011Z,64.5
2017-08-22T05:09:01.868Z,64.3
2017-08-22T05:10:04.389Z,64.3
2017-08-22T05:11:06.874Z,64.5
2017-08-22T05:12:09.387Z,64.5
2017-08-22T05:13:12.912Z,64.5
2017-08-22T05:14:15.428Z,64.5
2017-08-22T05:15:17.934Z,64.5
2017-08-22T05:16:20.772Z,64.6
2017-08-22T05:17:23.608Z,64.6
2017-08-22T05:18:26.126Z,64.6
2017-08-22T05:19:29.310Z,64.6
2017-08-22T05:20:31.830Z,64.7
2017-08-22T05:21:34.666Z,64.6
2017-08-22T05:22:37.834Z,64.5
2017-08-22T05:23:40.676Z,64.4
2017-08-22T05:24:43.205Z,64.5
2017-08-22T05:25:46.031Z,64.4
2017-08-22T05:26:48.544Z,64.4
2017-08-22T05:27:51.056Z,64.6
2017-08-22T05:28:53.556Z,64.4
2017-08-22T05:29:56.402Z,64.4
2017-08-22T05:30:59.631Z,64.3
2017-08-22T05:32:02.126Z,64.4
2017-08-22T05:33:04.635Z,64.2
2017-08-22T05:34:07.483Z,64.3
2017-08-22T05:35:10.691Z,64.3
2017-08-22T05:36:13.569Z,64.3
2017-08-22T05:37:16.426Z,64
2017-08-22T05:38:19.274Z,64.1
2017-08-22T05:39:21.783Z,64.2
2017-08-22T05:40:24.634Z,64.2
2017-08-22T05:41:27.146Z,63.9
2017-08-22T05:42:29.649Z,64.3
2017-08-22T05:43:32.505Z,64
2017-08-22T05:44:35.785Z,63.8
2017-08-22T05:45:39.302Z,63.9
2017-08-22T05:46:41.806Z,63.9
2017-08-22T05:47:44.316Z,63.8
2017-08-22T05:48:47.161Z,63.9
2017-08-22T05:49:50.371Z,63.7
2017-08-22T05:50:53.567Z,63.9
2017-08-22T05:51:56.427Z,63.8
2017-08-22T05:52:59.276Z,63.8
2017-08-22T05:54:01.811Z,63.8
2017-08-22T05:55:04.667Z,63.9
2017-08-22T05:56:07.940Z,64
2017-08-22T05:57:10.436Z,63.9
2017-08-22T05:58:13.294Z,63.9
2017-08-22T05:59:15.787Z,63.9
2017-08-22T06:00:18.640Z,64
2017-08-22T06:01:21.839Z,64
2017-08-22T06:02:25.024Z,63.9
2017-08-22T06:03:27.537Z,64
2017-08-22T06:04:30.058Z,63.9
2017-08-22T06:05:32.566Z,64
2017-08-22T06:06:35.096Z,63.9
2017-08-22T06:07:37.604Z,63.9
2017-08-22T06:08:40.438Z,63.9
2017-08-22T06:09:43.290Z,63.8
2017-08-22T06:10:46.126Z,63.9
2017-08-22T06:11:49.325Z,63.9
2017-08-22T06:12:51.871Z,63.8
2017-08-22T06:13:54.711Z,63.8
2017-08-22T06:14:57.223Z,63.9
2017-08-22T06:16:00.079Z,63.9
2017-08-22T06:17:03.258Z,63.9
2017-08-22T06:18:05.767Z,63.9
2017-08-22T06:19:08.278Z,63.8
2017-08-22T06:20:11.142Z,63.7
2017-08-22T06:21:13.672Z,63.6
2017-08-22T06:22:16.541Z,63.7
2017-08-22T06:23:20.402Z,63.8
2017-08-22T06:24:22.920Z,63.8
2017-08-22T06:25:25.423Z,63.9
2017-08-22T06:26:28.479Z,63.8
2017-08-22T06:27:31.350Z,63.8
2017-08-22T06:28:34.181Z,63.8
2017-08-22T06:29:36.693Z,63.8
2017-08-22T06:30:39.551Z,63.7
2017-08-22T06:31:42.057Z,63.8
2017-08-22T06:32:45.601Z,63.7
2017-08-22T06:33:48.148Z,63.6
2017-08-22T06:34:51.347Z,63.5
2017-08-22T06:35:54.198Z,63.6
2017-08-22T06:36:56.715Z,63.6
2017-08-22T06:37:59.228Z,63.5
2017-08-22T06:39:01.734Z,63.5
2017-08-22T06:40:04.238Z,63.6
2017-08-22T06:41:07.086Z,63.5
2017-08-22T06:42:54.752Z,63.6
2017-08-22T06:43:57.171Z,63.7
2017-08-22T06:44:59.595Z,63.7
2017-08-22T06:46:02.346Z,63.6
2017-08-22T06:47:05.434Z,63.8
2017-08-22T06:48:07.857Z,63.7
2017-08-22T06:49:10.610Z,63.6
2017-08-22T06:50:13.370Z,63.7
2017-08-22T06:51:16.117Z,63.6
2017-08-22T06:52:18.529Z,63.8
2017-08-22T06:53:20.957Z,63.6
2017-08-22T06:54:23.367Z,63.6
2017-08-22T06:55:26.119Z,63.5
2017-08-22T06:56:29.247Z,63.5
2017-08-22T06:57:32.684Z,63.5
2017-08-22T06:58:35.094Z,63.5
2017-08-22T06:59:37.510Z,63.5
2017-08-22T07:00:39.926Z,63.3
2017-08-22T07:01:42.341Z,63.2
2017-08-22T07:02:44.758Z,63.3
2017-08-22T07:03:47.216Z,63.3
2017-08-22T07:04:49.634Z,63.2
2017-08-22T07:05:52.384Z,63.3
2017-08-22T07:06:54.810Z,63.3
2017-08-22T07:07:57.233Z,63.3
2017-08-22T07:08:59.657Z,63.2
2017-08-22T07:10:02.470Z,63.3
2017-08-22T07:11:05.578Z,63.4
2017-08-22T07:12:08.008Z,63.4
2017-08-22T07:13:11.121Z,63.4
2017-08-22T07:14:13.542Z,63.4
2017-08-22T07:15:16.323Z,63.2
2017-08-22T07:16:18.743Z,63.2
2017-08-22T07:17:21.226Z,63
2017-08-22T07:18:24.330Z,63.2
2017-08-22T07:19:26.758Z,63.2
2017-08-22T07:20:29.185Z,63.1
2017-08-22T07:21:31.938Z,62.9
2017-08-22T07:22:34.399Z,62.9
2017-08-22T07:23:36.814Z,62.7
2017-08-22T07:24:39.255Z,62.7
2017-08-22T07:25:41.719Z,62.8
2017-08-22T07:26:44.145Z,62.9
2017-08-22T07:27:47.248Z,62.8
2017-08-22T07:28:50.015Z,62.9
2017-08-22T07:29:52.449Z,62.7
2017-08-22T07:30:55.228Z,62.6
2017-08-22T07:31:57.646Z,62.7
2017-08-22T07:33:00.079Z,62.7
2017-08-22T07:34:02.867Z,62.6
2017-08-22T07:35:05.620Z,62.6
2017-08-22T07:36:08.070Z,62.5
2017-08-22T07:37:10.816Z,62.5
2017-08-22T07:38:13.271Z,62.5
2017-08-22T07:39:15.723Z,62.5
2017-08-22T07:40:18.803Z,62.4
2017-08-22T07:41:21.920Z,62.4
2017-08-22T07:42:24.372Z,62.3
2017-08-22T07:43:26.801Z,62.3
2017-08-22T07:44:29.225Z,62.2
2017-08-22T07:45:31.987Z,62.3
2017-08-22T07:46:35.092Z,62.4
2017-08-22T07:47:37.528Z,62.4
2017-08-22T07:48:39.952Z,62.5
2017-08-22T07:49:42.379Z,62.3
2017-08-22T07:50:45.161Z,62.3
2017-08-22T07:51:47.575Z,62.3
2017-08-22T07:52:50.346Z,62.4
2017-08-22T07:53:52.818Z,62.3
2017-08-22T07:54:55.589Z,62.4
2017-08-22T07:55:58.020Z,62.5
2017-08-22T07:57:00.788Z,62.4
2017-08-22T07:58:03.547Z,62.4
2017-08-22T07:59:06.296Z,62.4
2017-08-22T08:00:09.077Z,62.4
2017-08-22T08:01:12.216Z,62.5
2017-08-22T08:02:14.646Z,62.5
2017-08-22T08:03:17.431Z,62.6
2017-08-22T08:04:19.866Z,62.4
2017-08-22T08:05:22.328Z,62.2
2017-08-22T08:06:24.767Z,62.1
2017-08-22T08:07:27.532Z,62.1
2017-08-22T08:08:30.288Z,62.1
2017-08-22T08:09:33.404Z,62.1
2017-08-22T08:10:35.877Z,62.2
2017-08-22T08:11:38.284Z,62.1
2017-08-22T08:12:41.083Z,62.1
2017-08-22T08:13:43.879Z,62.1
2017-08-22T08:14:46.639Z,62.3
2017-08-22T08:15:49.080Z,62.2
2017-08-22T08:16:51.846Z,62.3
2017-08-22T08:17:54.267Z,62.3
2017-08-22T08:18:56.688Z,62.2
2017-08-22T08:19:59.117Z,62.1
2017-08-22T08:21:01.653Z,62.2
2017-08-22T08:22:04.419Z,62.2
2017-08-22T08:23:07.550Z,62.2
2017-08-22T08:24:10.308Z,62
2017-08-22T08:25:12.779Z,62.1
2017-08-22T08:26:15.197Z,62.1
2017-08-22T08:27:17.652Z,62.2
2017-08-22T08:28:20.451Z,62.2
2017-08-22T08:29:22.881Z,62.1
2017-08-22T08:30:25.295Z,62.2
2017-08-22T08:31:27.715Z,62.3
2017-08-22T08:32:30.489Z,62
2017-08-22T08:33:33.267Z,61.8
2017-08-22T08:34:35.693Z,61.9
2017-08-22T08:35:38.125Z,61.8
2017-08-22T08:36:40.544Z,62
2017-08-22T08:37:42.995Z,62.1
2017-08-22T08:38:45.816Z,62
2017-08-22T08:39:48.571Z,62.1
2017-08-22T08:40:51.403Z,62.3
2017-08-22T08:41:53.853Z,62.4
2017-08-22T08:42:56.325Z,62.4
2017-08-22T08:43:59.500Z,62.1
2017-08-22T08:45:03.009Z,62.1
2017-08-22T08:46:05.510Z,62.1
2017-08-22T08:47:08.652Z,61.8
2017-08-22T08:48:11.750Z,61.5
2017-08-22T08:49:14.848Z,61.5
2017-08-22T08:50:17.317Z,61.6
2017-08-22T08:51:19.746Z,61.7
2017-08-22T08:52:22.177Z,61.8
2017-08-22T08:53:24.607Z,61.9
2017-08-22T08:54:27.363Z,62
2017-08-22T08:55:30.128Z,61.8
2017-08-22T08:56:32.636Z,61.8
2017-08-22T08:57:35.113Z,61.8
2017-08-22T08:58:37.538Z,61.8
2017-08-22T08:59:39.963Z,61.9
2017-08-22T09:00:42.736Z,62.2
2017-08-22T09:01:45.166Z,62.1
2017-08-22T09:02:47.973Z,62.1
2017-08-22T09:03:50.406Z,61.9
2017-08-22T09:04:53.160Z,61.9
2017-08-22T09:05:56.592Z,61.7
2017-08-22T09:06:59.033Z,61.2
2017-08-22T09:08:01.793Z,61.1
2017-08-22T09:09:04.607Z,61
2017-08-22T09:10:07.818Z,61.2
2017-08-22T09:11:10.231Z,61.3
2017-08-22T09:12:13.014Z,61.5
2017-08-22T09:13:15.767Z,61.5
2017-08-22T09:14:18.612Z,61.3
2017-08-22T09:15:21.404Z,61.2
2017-08-22T09:16:24.183Z,61
2017-08-22T09:17:26.942Z,60.6
2017-08-22T09:18:29.382Z,60.5
2017-08-22T09:19:32.152Z,60.6
2017-08-22T09:20:34.933Z,60.8
2017-08-22T09:21:37.709Z,60.4
2017-08-22T09:22:40.471Z,60.1
2017-08-22T09:23:42.907Z,59.9
2017-08-22T09:24:45.337Z,59.8
2017-08-22T09:25:47.754Z,59.5
2017-08-22T09:26:50.183Z,59.1
2017-08-22T09:27:52.613Z,58.9
2017-08-22T09:28:55.039Z,59
2017-08-22T09:29:57.806Z,59.2
2017-08-22T09:31:00.230Z,59.7
2017-08-22T09:32:02.697Z,60.1
2017-08-22T09:33:06.137Z,60.2
2017-08-22T09:34:08.633Z,60
2017-08-22T09:35:11.047Z,60.4
2017-08-22T09:36:13.836Z,60
2017-08-22T09:37:16.283Z,59.3
2017-08-22T09:38:18.730Z,58.9
2017-08-22T09:39:21.558Z,58.6
2017-08-22T09:40:24.111Z,58.4
2017-08-22T09:41:27.041Z,58.2
2017-08-22T09:42:29.517Z,58
2017-08-22T09:43:32.066Z,57.9
2017-08-22T09:44:34.838Z,58.4
2017-08-22T09:45:37.930Z,59
2017-08-22T09:46:40.386Z,58.9
2017-08-22T09:47:43.154Z,58.5
2017-08-22T09:48:45.578Z,58.2
2017-08-22T09:49:48.692Z,58.8
2017-08-22T09:50:51.127Z,59.4
2017-08-22T09:51:53.553Z,59.9
2017-08-22T09:52:56.329Z,60
2017-08-22T09:53:58.766Z,60.4
2017-08-22T09:55:01.575Z,60.6
2017-08-22T09:56:04.349Z,61
2017-08-22T09:57:07.116Z,61.2
2017-08-22T09:58:09.575Z,61.2
2017-08-22T09:59:12.007Z,61.5
2017-08-22T10:00:15.120Z,61.3
2017-08-22T10:01:18.281Z,61.2
2017-08-22T10:02:21.074Z,61
2017-08-22T10:03:23.499Z,60.5
2017-08-22T10:04:26.281Z,59.9
2017-08-22T10:05:28.717Z,59.3
2017-08-22T10:06:31.484Z,58.8
2017-08-22T10:07:34.594Z,58.3
2017-08-22T10:08:37.013Z,57.8
2017-08-22T10:09:39.788Z,57.5
2017-08-22T10:10:42.241Z,56.9
2017-08-22T10:11:45.005Z,56.6
2017-08-22T10:12:47.440Z,56.6
2017-08-22T10:13:49.864Z,57
2017-08-22T10:14:52.637Z,56.6
2017-08-22T10:15:55.413Z,56.3
2017-08-22T10:16:57.840Z,56.3
2017-08-22T10:18:00.596Z,56.3
2017-08-22T10:19:03.381Z,56.7
2017-08-22T10:20:06.946Z,56.9
2017-08-22T10:21:09.378Z,57.2
2017-08-22T10:22:12.831Z,57.8
2017-08-22T10:23:15.256Z,58.2
2017-08-22T10:24:18.369Z,58.4
2017-08-22T10:25:20.806Z,58.8
2017-08-22T10:26:23.573Z,58.9
2017-08-22T10:27:26.363Z,58.9
2017-08-22T10:28:29.122Z,58.9
2017-08-22T10:29:31.553Z,58.6
2017-08-22T10:30:34.330Z,58.4
2017-08-22T10:31:36.760Z,58.3
2017-08-22T10:32:39.544Z,58.1
2017-08-22T10:33:42.653Z,57.5
2017-08-22T10:34:45.418Z,56.8
2017-08-22T10:35:48.533Z,56.3
2017-08-22T10:36:50.962Z,56.3
2017-08-22T10:37:53.391Z,56.2
2017-08-22T10:38:55.828Z,56.2
2017-08-22T10:39:58.264Z,56.2
2017-08-22T10:41:01.037Z,56.2
2017-08-22T10:42:04.148Z,56.2
2017-08-22T10:43:06.912Z,56.2
2017-08-22T10:44:09.350Z,56.2
2017-08-22T10:45:12.139Z,56.3
2017-08-22T10:46:14.890Z,56.4
2017-08-22T10:47:17.331Z,56.6
2017-08-22T10:48:20.103Z,56.6
2017-08-22T10:49:22.528Z,56.6
2017-08-22T10:50:25.671Z,56.7
2017-08-22T10:51:28.775Z,56.8
2017-08-22T10:52:31.210Z,56.8
2017-08-22T10:53:34.001Z,57
2017-08-22T10:54:36.784Z,57
2017-08-22T10:55:39.542Z,56
2017-08-22T10:56:41.976Z,55.3
2017-08-22T10:57:44.770Z,55.1
2017-08-22T10:58:47.194Z,55.2
2017-08-22T10:59:50.318Z,55.2
2017-08-22T11:00:53.439Z,55.3
2017-08-22T11:01:56.881Z,55.5
2017-08-22T11:02:59.695Z,55.2
2017-08-22T11:04:02.809Z,54.8
2017-08-22T11:05:05.937Z,54.9
2017-08-22T11:06:08.383Z,55.1
2017-08-22T11:07:10.857Z,55.5
2017-08-22T11:08:13.287Z,55.6
2017-08-22T11:09:15.725Z,55.4
2017-08-22T11:10:18.493Z,55.6
2017-08-22T11:11:21.271Z,55.7
2017-08-22T11:12:23.718Z,55.6
2017-08-22T11:13:26.170Z,55.6
2017-08-22T11:14:28.608Z,55.3
2017-08-22T11:15:31.386Z,55.1
2017-08-22T11:16:33.815Z,55.3
2017-08-22T11:17:36.589Z,55.6
2017-08-22T11:18:39.364Z,55.6
2017-08-22T11:19:41.785Z,55.6
2017-08-22T11:20:44.568Z,55.6
2017-08-22T11:21:47.707Z,55.4
2017-08-22T11:22:50.149Z,55.2
2017-08-22T11:23:52.924Z,54.7
2017-08-22T11:24:55.351Z,54.4
2017-08-22T11:25:57.791Z,54.1
2017-08-22T11:27:00.229Z,53.9
2017-08-22T11:28:02.660Z,53.8
2017-08-22T11:29:05.426Z,53.8
2017-08-22T11:30:08.537Z,53.7
2017-08-22T11:31:11.305Z,53.7
2017-08-22T11:32:14.424Z,53.5
2017-08-22T11:33:16.844Z,53.4
2017-08-22T11:34:19.644Z,53.5
2017-08-22T11:35:22.413Z,53.6
2017-08-22T11:36:25.514Z,53.8
2017-08-22T11:37:29.087Z,53.7
2017-08-22T11:38:32.239Z,53.8
2017-08-22T11:39:35.002Z,53.9
2017-08-22T11:40:37.430Z,54
2017-08-22T11:41:39.882Z,53.9
2017-08-22T11:42:42.311Z,54.1
2017-08-22T11:43:44.747Z,54.3
2017-08-22T11:44:47.508Z,54.1
2017-08-22T11:45:49.948Z,54.2
2017-08-22T11:46:52.718Z,54.1
2017-08-22T11:47:55.829Z,54.1
2017-08-22T11:48:58.603Z,53.9
2017-08-22T11:50:01.383Z,53.9
2017-08-22T11:51:04.133Z,53.9
2017-08-22T11:52:07.249Z,54.1
2017-08-22T11:53:09.686Z,54.6
2017-08-22T11:54:12.126Z,54.7
2017-08-22T11:55:14.552Z,54.6
2017-08-22T11:56:16.982Z,54.4
2017-08-22T11:57:19.792Z,54.2
2017-08-22T11:58:22.252Z,54
2017-08-22T11:59:25.245Z,54.1
2017-08-22T12:00:28.708Z,54.2
2017-08-22T12:01:31.497Z,54.3
2017-08-22T12:02:34.597Z,54.4
2017-08-22T12:03:37.362Z,54.4
2017-08-22T12:04:39.796Z,54.1
2017-08-22T12:05:43.243Z,54
2017-08-22T12:06:46.059Z,53.6
2017-08-22T12:07:48.487Z,53.3
2017-08-22T12:08:50.929Z,53.3
2017-08-22T12:09:53.704Z,53.3
2017-08-22T12:10:56.136Z,53.5
2017-08-22T12:11:58.909Z,53.4
2017-08-22T12:13:01.688Z,53.3
2017-08-22T12:14:04.823Z,53.2
2017-08-22T12:15:07.256Z,53.2
2017-08-22T12:16:09.694Z,53.3
2017-08-22T12:17:12.442Z,53.3
2017-08-22T12:18:14.890Z,53.4
2017-08-22T12:19:17.309Z,53.3
2017-08-22T12:20:20.097Z,53.3
2017-08-22T12:21:22.871Z,53.5
2017-08-22T12:22:26.310Z,53.6
2017-08-22T12:23:28.745Z,53.6
2017-08-22T12:24:31.192Z,53.8
2017-08-22T12:25:33.614Z,53.9
2017-08-22T12:26:36.779Z,53.9
2017-08-22T12:27:39.439Z,53.9
2017-08-22T12:28:42.111Z,53.8
2017-08-22T12:29:44.873Z,53.9
2017-08-22T12:30:47.647Z,53.8
2017-08-22T12:31:50.121Z,53.7
2017-08-22T12:32:52.686Z,53.9
2017-08-22T12:33:55.112Z,53.9
2017-08-22T12:34:58.219Z,54
2017-08-22T12:36:00.987Z,54.1
2017-08-22T12:37:03.766Z,54.2
2017-08-22T12:38:06.189Z,54.2
2017-08-22T12:39:09.214Z,54.1
2017-08-22T12:40:11.977Z,54.1
2017-08-22T12:41:14.731Z,54.1
2017-08-22T12:42:17.825Z,54
2017-08-22T12:43:20.272Z,54
2017-08-22T12:44:23.395Z,54
2017-08-22T12:45:25.840Z,54.1
2017-08-22T12:46:28.655Z,54.2
2017-08-22T12:47:31.084Z,54.5
2017-08-22T12:48:33.848Z,54.5
2017-08-22T12:49:36.954Z,54.6
2017-08-22T12:50:39.718Z,54.6
2017-08-22T12:51:42.476Z,54.7
2017-08-22T12:52:45.237Z,54.7
2017-08-22T12:53:47.671Z,54.8
2017-08-22T12:54:50.995Z,54.8
2017-08-22T12:55:53.764Z,54.8
2017-08-22T12:56:56.542Z,54.5
2017-08-22T12:57:58.959Z,54.1
2017-08-22T12:59:01.729Z,53.9
2017-08-22T13:00:04.856Z,53.8
2017-08-22T13:01:07.635Z,53.6
2017-08-22T13:02:10.065Z,53.5
2017-08-22T13:03:12.504Z,53.2
2017-08-22T13:04:15.317Z,53
2017-08-22T13:05:17.930Z,52.9
2017-08-22T13:06:20.357Z,52.9
2017-08-22T13:07:23.116Z,52.9
2017-08-22T13:08:26.217Z,52.8
2017-08-22T13:09:28.979Z,52.8
2017-08-22T13:10:32.289Z,52.7
2017-08-22T13:11:36.064Z,52.8
2017-08-22T13:12:38.834Z,52.8
2017-08-22T13:13:41.604Z,52.8
2017-08-22T13:14:44.053Z,52.9
2017-08-22T13:15:46.472Z,53
2017-08-22T13:16:49.570Z,53.2
2017-08-22T13:17:52.350Z,53.2
2017-08-22T13:18:55.812Z,53.4
2017-08-22T13:19:58.589Z,53.4
2017-08-22T13:21:01.404Z,53.4
2017-08-22T13:22:04.175Z,53.4
2017-08-22T13:23:06.602Z,53.4
2017-08-22T13:24:09.716Z,53.4
2017-08-22T13:25:12.841Z,53.2
2017-08-22T13:26:15.955Z,53.2
2017-08-22T13:27:19.054Z,53.2
2017-08-22T13:28:21.476Z,53.3
2017-08-22T13:29:24.241Z,53.2
2017-08-22T13:30:27.696Z,53.2
2017-08-22T13:31:30.471Z,53.3
2017-08-22T13:32:33.924Z,53.2
2017-08-22T13:33:36.353Z,53.2
2017-08-22T13:34:38.779Z,53.2
2017-08-22T13:35:41.564Z,53.2
2017-08-22T13:36:44.335Z,53
2017-08-22T13:37:47.109Z,52.9
2017-08-22T13:38:49.520Z,52.8
2017-08-22T13:39:51.957Z,52.5
2017-08-22T13:40:54.376Z,52.3
2017-08-22T13:41:56.805Z,52.1
2017-08-22T13:42:59.243Z,52
2017-08-22T13:44:02.045Z,52
2017-08-22T13:45:05.484Z,51.8
2017-08-22T13:46:08.320Z,52
2017-08-22T13:47:11.084Z,52.1
2017-08-22T13:48:14.552Z,52
2017-08-22T13:49:16.982Z,52.1
2017-08-22T13:50:20.100Z,52
2017-08-22T13:51:22.531Z,52
2017-08-22T13:52:24.976Z,51.9
2017-08-22T13:53:27.394Z,51.8
2017-08-22T13:54:30.176Z,51.8
2017-08-22T13:55:32.623Z,51.9
2017-08-22T13:56:35.400Z,51.9
2017-08-22T13:57:37.822Z,52
2017-08-22T13:58:40.590Z,51.9
2017-08-22T13:59:43.027Z,52
2017-08-22T14:00:46.141Z,52